»·PEaware :: N46PM KVUO-3S8

N46PM :: KVUO-3S8

FLIGHT INFORMATION

Flight Status: Arrived
Operator: Privately registered:
United States
More flights under this callsign
Pilot: Gabor H. (24209)
Aircraft: PIPER PA-46-500TP MALIBU MERIDIAN
(P46T)
More flights by this aircraft type
Origin: KVUO Pearson
United States
Destination: 3S8 Grants Pass
United States
More flights between these airports :: More routes between these airports
Route: +BTG V287 CAMAS
File this flight plan on PilotEdge
Remarks:
Altitude:
(Current/Filed)
17,000ft
Speed:
(Current/Filed)
260kts
Departed: 22-Nov-20 01:45 PM
Arrived: 22-Nov-20 03:03 PM
Distance/Time
Traveled:
189nm/1:17
Distance/Time
To Go:
Arrived

Flight Plot

Page will automatically refresh every two minutes.

Flight plan parsing failed; only flown route is shown


Map Options




Map Legend


Flown Route
Filed Route
Departure Airport
Arrival Airport
Navaid (VOR, NDB)
Fix

Horizontal Profiles

Position Reports

Time Latitude Longitude Heading Altitude Ground
Speed
22-Nov-20 13:33 45.622608 -122.654434 141 30ft 0kts
22-Nov-20 13:34 45.622608 -122.654434 141 30ft 0kts
22-Nov-20 13:35 45.622608 -122.654434 141 30ft 0kts
22-Nov-20 13:36 45.622608 -122.654434 141 30ft 0kts
22-Nov-20 13:37 45.622608 -122.654434 141 30ft 0kts
22-Nov-20 13:38 45.622608 -122.654434 141 30ft 0kts
22-Nov-20 13:39 45.622449 -122.654317 161 28ft 9kts
22-Nov-20 13:40 45.621695 -122.654767 185 27ft 1kts
22-Nov-20 13:41 45.621326 -122.655733 272 27ft 11kts
22-Nov-20 13:42 45.621279 -122.660530 277 30ft 16kts
22-Nov-20 13:43 45.621465 -122.662359 276 32ft 0kts
22-Nov-20 13:44 45.620241 -122.654964 104 49ft 91kts
22-Nov-20 13:45 45.645708 -122.638970 352 785ft 152kts
22-Nov-20 13:46 45.688784 -122.647870 352 1358ft 161kts
22-Nov-20 13:47 45.735760 -122.656392 352 1501ft 179kts
22-Nov-20 13:48 45.784589 -122.665417 356 2269ft 179kts
22-Nov-20 13:49 45.825966 -122.633699 53 3165ft 176kts
22-Nov-20 13:50 45.801543 -122.597268 175 4110ft 171kts
22-Nov-20 13:51 45.754987 -122.592574 177 5440ft 152kts
22-Nov-20 13:52 45.723279 -122.616656 214 7204ft 124kts
22-Nov-20 13:53 45.695094 -122.643982 216 8633ft 122kts
22-Nov-20 13:54 45.666603 -122.672106 217 9899ft 124kts
22-Nov-20 13:55 45.638670 -122.699681 217 11114ft 118kts
22-Nov-20 13:56 45.611590 -122.726353 218 12325ft 119kts
22-Nov-20 13:57 45.583837 -122.753769 218 13333ft 122kts
22-Nov-20 13:58 45.555833 -122.781152 217 14366ft 121kts
22-Nov-20 13:59 45.527567 -122.808832 218 15258ft 125kts
22-Nov-20 14:00 45.497973 -122.837754 218 16124ft 130kts
22-Nov-20 14:01 45.468582 -122.866383 218 17310ft 129kts
22-Nov-20 14:02 45.438203 -122.896076 218 18112ft 150kts
22-Nov-20 14:03 45.398515 -122.935093 217 18100ft 188kts
22-Nov-20 14:04 45.353714 -122.977944 210 18101ft 199kts
22-Nov-20 14:05 45.302654 -123.010328 207 18103ft 202kts
22-Nov-20 14:06 45.250762 -123.043287 207 18099ft 206kts
22-Nov-20 14:07 45.198314 -123.076546 206 18087ft 207kts
22-Nov-20 14:08 45.145618 -123.109882 206 18070ft 207kts
22-Nov-20 14:09 45.093171 -123.143000 206 18087ft 207kts
22-Nov-20 14:10 45.040525 -123.176174 206 18084ft 207kts
22-Nov-20 14:11 44.987698 -123.209398 206 18082ft 207kts
22-Nov-20 14:12 44.934845 -123.242563 206 18084ft 207kts
22-Nov-20 14:13 44.882000 -123.275659 206 18092ft 207kts
22-Nov-20 14:14 44.829243 -123.308640 206 18092ft 208kts
22-Nov-20 14:15 44.776206 -123.341718 206 18091ft 208kts
22-Nov-20 14:16 44.723092 -123.374788 206 18091ft 208kts
22-Nov-20 14:17 44.670172 -123.407668 206 18090ft 208kts
22-Nov-20 14:18 44.617069 -123.440590 206 18090ft 209kts
22-Nov-20 14:19 44.563850 -123.473519 206 18090ft 208kts
22-Nov-20 14:20 44.510731 -123.506330 206 18089ft 208kts
22-Nov-20 14:21 44.457604 -123.539065 206 18087ft 208kts
22-Nov-20 14:22 44.404456 -123.571762 205 18080ft 208kts
22-Nov-20 14:23 44.351256 -123.604414 205 18074ft 208kts
22-Nov-20 14:24 44.298109 -123.636982 205 18085ft 208kts
22-Nov-20 14:25 44.244788 -123.669579 205 18086ft 209kts
22-Nov-20 14:26 44.191444 -123.702140 205 18083ft 209kts
22-Nov-20 14:27 44.138088 -123.734634 205 18074ft 209kts
22-Nov-20 14:28 44.084628 -123.767131 205 18071ft 209kts
22-Nov-20 14:29 44.031195 -123.799549 204 18070ft 209kts
22-Nov-20 14:30 43.977828 -123.831856 204 18070ft 209kts
22-Nov-20 14:31 43.924476 -123.864096 204 18068ft 209kts
22-Nov-20 14:32 43.871050 -123.896318 204 18072ft 209kts
22-Nov-20 14:33 43.817458 -123.928577 204 18070ft 210kts
22-Nov-20 14:34 43.763690 -123.960869 205 18074ft 210kts
22-Nov-20 14:35 43.709976 -123.993080 205 18077ft 210kts
22-Nov-20 14:36 43.656292 -124.025202 205 18078ft 211kts
22-Nov-20 14:37 43.602311 -124.057436 204 18075ft 211kts
22-Nov-20 14:38 43.548333 -124.089602 205 18073ft 211kts
22-Nov-20 14:39 43.494367 -124.121706 205 18081ft 211kts
22-Nov-20 14:40 43.440344 -124.153771 205 18081ft 212kts
22-Nov-20 14:41 43.388079 -124.130424 142 17789ft 231kts
22-Nov-20 14:42 43.343930 -124.070420 142 16725ft 217kts
22-Nov-20 14:43 43.300868 -124.011666 142 15820ft 219kts
22-Nov-20 14:44 43.257206 -123.952134 141 14919ft 221kts
22-Nov-20 14:45 43.214073 -123.893459 141 13951ft 217kts
22-Nov-20 14:46 43.171320 -123.835433 141 12944ft 216kts
22-Nov-20 14:47 43.128909 -123.777990 141 11936ft 213kts
22-Nov-20 14:48 43.086992 -123.721363 140 10922ft 209kts
22-Nov-20 14:49 43.046522 -123.666726 140 10300ft 201kts
22-Nov-20 14:50 43.003750 -123.619391 166 9422ft 195kts
22-Nov-20 14:51 42.951429 -123.599596 167 8550ft 195kts
22-Nov-20 14:52 42.899393 -123.580584 167 7691ft 192kts
22-Nov-20 14:53 42.850982 -123.562980 167 6890ft 172kts
22-Nov-20 14:54 42.806043 -123.543805 161 6357ft 174kts
22-Nov-20 14:55 42.759776 -123.520413 161 5291ft 174kts
22-Nov-20 14:56 42.716260 -123.498254 160 4995ft 174kts
22-Nov-20 14:57 42.671469 -123.476039 159 4444ft 171kts
22-Nov-20 14:58 42.628188 -123.453828 159 3860ft 162kts
22-Nov-20 14:59 42.594204 -123.436566 161 3150ft 118kts
22-Nov-20 15:00 42.562981 -123.420819 161 2307ft 119kts
22-Nov-20 15:01 42.530661 -123.404518 160 1534ft 112kts
22-Nov-20 15:02 42.510578 -123.388488 140 1112ft 13kts
22-Nov-20 15:03 42.509689 -123.388588 214 1112ft 0kts
22-Nov-20 15:04 42.509257 -123.388194 142 1113ft 15kts
22-Nov-20 15:05 42.506003 -123.385192 328 1125ft 0kts
22-Nov-20 15:06 42.506003 -123.385192 328 1125ft 0kts
22-Nov-20 15:07 42.506003 -123.385192 328 1125ft 0kts
22-Nov-20 15:08 42.506003 -123.385192 328 1125ft 0kts
22-Nov-20 15:10 42.506003 -123.385192 328 1125ft 0kts
22-Nov-20 15:11 42.506003 -123.385192 328 1125ft 0kts
22-Nov-20 15:12 42.506003 -123.385192 328 1125ft 0kts
22-Nov-20 15:13 42.506003 -123.385192 328 1125ft 0kts
22-Nov-20 15:14 42.506003 -123.385192 328 1125ft 0kts
22-Nov-20 15:15 42.506003 -123.385192 328 1125ft 0kts
22-Nov-20 15:16 42.506003 -123.385192 328 1125ft 0kts
22-Nov-20 15:17 42.506003 -123.385192 328 1125ft 0kts

Navigation Log

Ident Type
Flight plan parsing failed, navigation log unavailable